Time;durP1;ratioP1;P1;durP2;ratioP2;P2;SDS_P1;SDS_P2;PMS_P1;PMS_P2;Temp;Humidity;BMP_temperature;BMP_pressure;BME280_temperature;BME280_humidity;BME280_pressure;Samples;Min_cycle;Max_cycle;Signal;HPM_P1;HPM_P2
2022/03/02 00:00:35;;;;;;;0.00;0.00;;;;;;;;;;4938532;28;20991;-68
2022/03/02 00:03:03;;;;;;;0.10;0.10;;;;;;;;;;4937138;28;20672;-67
2022/03/02 00:05:30;;;;;;;0.00;0.00;;;;;;;;;;4933061;29;20218;-68
2022/03/02 00:07:57;;;;;;;0.00;0.00;;;;;;;;;;4935310;28;20211;-68
2022/03/02 00:10:25;;;;;;;0.00;0.00;;;;;;;;;;4938161;28;20710;-68
2022/03/02 00:12:52;;;;;;;0.73;0.73;;;;;;;;;;4940478;28;20214;-68
2022/03/02 00:15:21;;;;;;;0.00;0.00;;;;;;;;;;4932601;28;20195;-68
2022/03/02 00:17:48;;;;;;;1.20;1.20;;;;;;;;;;4932684;28;20217;-68
2022/03/02 00:20:16;;;;;;;0.97;0.97;;;;;;;;;;4936276;28;20571;-67
2022/03/02 00:22:43;;;;;;;0.00;0.00;;;;;;;;;;4937713;28;20687;-67
2022/03/02 00:25:11;;;;;;;0.00;0.00;;;;;;;;;;4936089;28;20226;-68
2022/03/02 00:27:38;;;;;;;0.00;0.00;;;;;;;;;;4931978;28;20230;-67
2022/03/02 00:30:10;;;;;;;0.00;0.00;;;;;;;;;;4933662;28;20238;-68
2022/03/02 00:32:39;;;;;;;0.00;0.00;;;;;;;;;;4937689;28;20238;-68
2022/03/02 00:35:07;;;;;;;0.00;0.00;;;;;;;;;;4933909;28;20206;-69
2022/03/02 00:37:34;;;;;;;0.00;0.00;;;;;;;;;;4943178;28;20211;-67
2022/03/02 00:40:02;;;;;;;2.23;1.80;;;;;;;;;;4935461;28;20211;-68
2022/03/02 00:42:30;;;;;;;0.00;0.00;;;;;;;;;;4940257;28;20668;-68
2022/03/02 00:44:57;;;;;;;0.00;0.00;;;;;;;;;;4938104;28;20653;-68
2022/03/02 00:47:24;;;;;;;0.00;0.00;;;;;;;;;;4932480;28;20200;-67
2022/03/02 00:49:53;;;;;;;0.00;0.00;;;;;;;;;;4933054;28;20246;-67
2022/03/02 00:52:21;;;;;;;0.00;0.00;;;;;;;;;;4933009;28;20203;-67
2022/03/02 00:54:49;;;;;;;0.70;0.50;;;;;;;;;;4934529;28;20232;-68
2022/03/02 00:57:16;;;;;;;0.00;0.00;;;;;;;;;;4939327;28;20196;-69
2022/03/02 00:59:43;;;;;;;0.57;0.57;;;;;;;;;;4933713;28;20210;-69
2022/03/02 01:02:11;;;;;;;0.00;0.00;;;;;;;;;;4933888;28;20211;-68
2022/03/02 01:04:38;;;;;;;0.00;0.00;;;;;;;;;;4936013;28;20191;-68
2022/03/02 01:07:07;;;;;;;0.20;0.20;;;;;;;;;;4934758;28;20692;-68
2022/03/02 01:09:34;;;;;;;0.00;0.00;;;;;;;;;;4936528;28;20210;-68
2022/03/02 01:12:02;;;;;;;0.00;0.00;;;;;;;;;;4936362;28;20207;-68
2022/03/02 01:14:29;;;;;;;0.00;0.00;;;;;;;;;;4937566;28;20202;-68
2022/03/02 01:16:57;;;;;;;0.00;0.00;;;;;;;;;;4935753;28;20664;-68
2022/03/02 01:19:24;;;;;;;0.73;0.73;;;;;;;;;;4939791;28;20200;-68
2022/03/02 01:21:51;;;;;;;1.07;1.07;;;;;;;;;;4938812;28;20208;-68
2022/03/02 01:24:20;;;;;;;1.50;1.10;;;;;;;;;;4936842;28;20207;-67
2022/03/02 01:26:48;;;;;;;0.00;0.00;;;;;;;;;;4939748;29;20206;-69
2022/03/02 01:29:15;;;;;;;0.00;0.00;;;;;;;;;;4932559;28;20259;-69
2022/03/02 01:31:43;;;;;;;0.30;0.30;;;;;;;;;;4937390;28;20590;-69
2022/03/02 01:34:10;;;;;;;0.03;0.03;;;;;;;;;;4937151;28;20823;-68
2022/03/02 01:36:38;;;;;;;0.00;0.00;;;;;;;;;;4936233;28;20207;-68
2022/03/02 01:39:05;;;;;;;0.10;0.10;;;;;;;;;;4937059;28;20207;-68
2022/03/02 01:41:35;;;;;;;0.97;0.93;;;;;;;;;;4941932;28;20214;-68
2022/03/02 01:44:02;;;;;;;0.57;0.57;;;;;;;;;;4935657;28;20298;-68
2022/03/02 01:46:30;;;;;;;0.57;0.47;;;;;;;;;;4933983;28;20202;-68
2022/03/02 01:48:57;;;;;;;0.00;0.00;;;;;;;;;;4936269;29;20682;-68
2022/03/02 01:51:25;;;;;;;0.20;0.20;;;;;;;;;;4937397;29;20236;-69
2022/03/02 01:53:52;;;;;;;3.87;1.47;;;;;;;;;;4933614;28;21016;-69
2022/03/02 01:56:20;;;;;;;0.53;0.53;;;;;;;;;;4933497;28;20203;-68
2022/03/02 01:58:48;;;;;;;1.13;1.07;;;;;;;;;;4935259;29;20218;-67
2022/03/02 02:01:16;;;;;;;1.70;1.60;;;;;;;;;;4935140;28;20237;-67
2022/03/02 02:03:44;;;;;;;1.43;1.33;;;;;;;;;;4934397;29;20207;-67
2022/03/02 02:06:13;;;;;;;0.93;0.70;;;;;;;;;;4934507;29;20203;-68
2022/03/02 02:08:40;;;;;;;0.67;0.60;;;;;;;;;;4933036;28;20698;-69
2022/03/02 02:11:08;;;;;;;0.07;0.07;;;;;;;;;;4938106;28;20226;-70
2022/03/02 02:13:35;;;;;;;1.23;1.13;;;;;;;;;;4938354;28;20591;-69
2022/03/02 02:16:05;;;;;;;1.10;1.10;;;;;;;;;;4940976;28;20591;-68
2022/03/02 02:18:33;;;;;;;0.13;0.13;;;;;;;;;;4940012;29;20210;-67
2022/03/02 02:21:03;;;;;;;0.00;0.00;;;;;;;;;;4939018;29;21175;-67
2022/03/02 02:23:31;;;;;;;0.10;0.10;;;;;;;;;;4939899;29;20594;-69
2022/03/02 02:25:58;;;;;;;4.53;1.00;;;;;;;;;;4945116;29;20562;-69
2022/03/02 02:28:27;;;;;;;0.00;0.00;;;;;;;;;;4950663;29;20669;-68
2022/03/02 02:30:55;;;;;;;0.00;0.00;;;;;;;;;;4935121;28;20212;-69
2022/03/02 02:33:23;;;;;;;0.77;0.10;;;;;;;;;;4940216;29;20760;-68
2022/03/02 02:35:50;;;;;;;0.37;0.37;;;;;;;;;;4941641;29;20203;-67
2022/03/02 02:38:21;;;;;;;0.00;0.00;;;;;;;;;;4934548;28;20233;-67
2022/03/02 02:40:49;;;;;;;0.30;0.30;;;;;;;;;;4944059;28;20645;-68
2022/03/02 02:43:17;;;;;;;0.17;0.17;;;;;;;;;;4934380;28;20206;-67
2022/03/02 02:45:44;;;;;;;0.47;0.47;;;;;;;;;;4935071;29;20677;-68
2022/03/02 02:48:12;;;;;;;0.00;0.00;;;;;;;;;;4934449;29;20222;-69
2022/03/02 02:50:39;;;;;;;1.90;1.17;;;;;;;;;;4933474;28;20256;-68
2022/03/02 02:53:07;;;;;;;0.67;0.60;;;;;;;;;;4932739;28;20200;-69
2022/03/02 02:55:36;;;;;;;6.60;4.10;;;;;;;;;;4934600;28;20227;-66
2022/03/02 02:58:04;;;;;;;0.00;0.00;;;;;;;;;;4945844;29;20297;-69
2022/03/02 03:00:33;;;;;;;1.30;1.20;;;;;;;;;;4943723;28;20211;-69
2022/03/02 03:03:01;;;;;;;2.50;0.93;;;;;;;;;;4934550;29;20250;-68
2022/03/02 03:05:31;;;;;;;0.43;0.43;;;;;;;;;;4935485;29;20630;-67
2022/03/02 03:07:59;;;;;;;3.07;2.77;;;;;;;;;;4937321;28;20812;-67
2022/03/02 03:10:27;;;;;;;4.23;2.20;;;;;;;;;;4933140;29;20210;-69
2022/03/02 03:12:56;;;;;;;0.43;0.43;;;;;;;;;;4948589;29;20575;-69
2022/03/02 03:15:24;;;;;;;0.00;0.00;;;;;;;;;;4941212;28;20687;-68
2022/03/02 03:17:51;;;;;;;4.60;3.37;;;;;;;;;;4943510;28;20199;-68
2022/03/02 03:20:20;;;;;;;0.40;0.40;;;;;;;;;;4934953;29;20200;-68
2022/03/02 03:22:47;;;;;;;2.33;0.60;;;;;;;;;;4934240;28;20245;-67
2022/03/02 03:25:15;;;;;;;0.67;0.67;;;;;;;;;;4935204;28;20203;-67
2022/03/02 03:27:43;;;;;;;1.90;1.00;;;;;;;;;;4934185;28;20300;-67
2022/03/02 03:30:13;;;;;;;0.00;0.00;;;;;;;;;;4940307;28;20256;-69
2022/03/02 03:32:40;;;;;;;1.70;1.40;;;;;;;;;;4950123;29;20235;-69
2022/03/02 03:35:09;;;;;;;0.00;0.00;;;;;;;;;;4939358;28;20229;-68
2022/03/02 03:37:36;;;;;;;0.10;0.10;;;;;;;;;;4939515;28;20739;-69
2022/03/02 03:40:04;;;;;;;0.00;0.00;;;;;;;;;;4939336;29;20571;-68
2022/03/02 03:42:32;;;;;;;0.37;0.37;;;;;;;;;;4934754;28;20211;-68
2022/03/02 03:44:59;;;;;;;10.03;2.73;;;;;;;;;;4937539;28;20664;-69
2022/03/02 03:47:28;;;;;;;2.50;2.30;;;;;;;;;;4936858;29;20214;-68
2022/03/02 03:49:55;;;;;;;0.57;0.53;;;;;;;;;;4937963;29;20598;-69
2022/03/02 03:52:23;;;;;;;0.87;0.60;;;;;;;;;;4942357;28;20704;-68
2022/03/02 03:54:50;;;;;;;1.80;1.60;;;;;;;;;;4931521;28;20243;-69
2022/03/02 03:57:17;;;;;;;1.03;0.80;;;;;;;;;;4930444;28;20219;-67
2022/03/02 03:59:45;;;;;;;1.90;0.57;;;;;;;;;;4936253;28;20211;-67
2022/03/02 04:02:14;;;;;;;0.00;0.00;;;;;;;;;;4938710;28;20203;-68
2022/03/02 04:04:43;;;;;;;0.33;0.33;;;;;;;;;;4940806;28;20211;-67
2022/03/02 04:07:11;;;;;;;0.40;0.40;;;;;;;;;;4938908;28;21710;-68
2022/03/02 04:09:38;;;;;;;1.50;1.40;;;;;;;;;;4936301;29;20200;-66
2022/03/02 04:12:06;;;;;;;2.27;1.83;;;;;;;;;;4933349;28;20227;-67
2022/03/02 04:14:33;;;;;;;2.30;2.13;;;;;;;;;;4938251;28;20565;-67
2022/03/02 04:17:00;;;;;;;2.43;2.23;;;;;;;;;;4939502;28;20571;-67
2022/03/02 04:19:28;;;;;;;1.17;0.97;;;;;;;;;;4939739;29;20673;-68
2022/03/02 04:21:56;;;;;;;0.63;0.63;;;;;;;;;;4938385;28;20206;-69
2022/03/02 04:24:24;;;;;;;2.43;2.30;;;;;;;;;;4936489;28;20210;-68
2022/03/02 04:26:51;;;;;;;4.73;1.67;;;;;;;;;;4934835;28;20208;-68
2022/03/02 04:29:18;;;;;;;3.60;2.93;;;;;;;;;;4936079;28;20584;-67
2022/03/02 04:31:46;;;;;;;5.13;3.77;;;;;;;;;;4937542;28;20668;-68
2022/03/02 04:34:13;;;;;;;3.67;1.40;;;;;;;;;;4936355;29;20203;-67
2022/03/02 04:36:41;;;;;;;2.50;2.30;;;;;;;;;;4939176;28;20246;-68
2022/03/02 04:39:09;;;;;;;7.83;3.60;;;;;;;;;;4940083;28;20204;-68
2022/03/02 04:41:37;;;;;;;9.53;5.77;;;;;;;;;;4949267;28;20233;-69
2022/03/02 04:44:04;;;;;;;5.90;4.27;;;;;;;;;;4937452;29;20199;-68
2022/03/02 04:46:32;;;;;;;0.77;0.77;;;;;;;;;;4937469;28;20205;-69
2022/03/02 04:49:10;;;;;;;4.33;4.03;;;;;;;;;;4939419;28;21500;-67
2022/03/02 04:51:37;;;;;;;0.90;0.83;;;;;;;;;;4947942;29;20222;-68
2022/03/02 04:54:05;;;;;;;0.83;0.83;;;;;;;;;;4941248;28;20596;-66
2022/03/02 04:56:34;;;;;;;0.97;0.37;;;;;;;;;;4937418;29;20200;-67
2022/03/02 04:59:03;;;;;;;2.07;1.93;;;;;;;;;;4938159;28;20196;-67
2022/03/02 05:01:30;;;;;;;2.40;2.20;;;;;;;;;;4941623;29;20218;-67
2022/03/02 05:03:58;;;;;;;3.20;1.77;;;;;;;;;;4939402;29;20681;-69
2022/03/02 05:06:26;;;;;;;1.23;1.13;;;;;;;;;;4935307;28;20210;-69
2022/03/02 05:08:54;;;;;;;0.00;0.00;;;;;;;;;;4932658;28;20203;-67
2022/03/02 05:11:21;;;;;;;2.00;1.90;;;;;;;;;;4938005;29;20239;-69
2022/03/02 05:13:50;;;;;;;3.70;2.80;;;;;;;;;;4941205;29;20211;-68
2022/03/02 05:16:17;;;;;;;0.73;0.73;;;;;;;;;;4947132;28;20200;-68
2022/03/02 05:18:44;;;;;;;2.37;2.17;;;;;;;;;;4940643;28;20673;-68
2022/03/02 05:21:13;;;;;;;0.70;0.70;;;;;;;;;;4941211;28;20199;-68
2022/03/02 05:23:40;;;;;;;0.00;0.00;;;;;;;;;;4936296;28;20204;-69
2022/03/02 05:26:08;;;;;;;0.03;0.03;;;;;;;;;;4942730;28;20713;-67
2022/03/02 05:28:36;;;;;;;0.83;0.83;;;;;;;;;;4935813;29;20587;-68
2022/03/02 05:31:05;;;;;;;2.50;2.30;;;;;;;;;;4937078;28;20210;-69
2022/03/02 05:33:32;;;;;;;1.27;0.77;;;;;;;;;;4933938;28;20206;-68
2022/03/02 05:35:59;;;;;;;0.93;0.80;;;;;;;;;;4939728;29;20203;-67
2022/03/02 05:38:27;;;;;;;0.30;0.30;;;;;;;;;;4934997;28;20203;-68
2022/03/02 05:40:54;;;;;;;2.47;2.17;;;;;;;;;;4938484;28;20203;-68
2022/03/02 05:43:21;;;;;;;1.27;1.23;;;;;;;;;;4934092;28;20584;-68
2022/03/02 05:45:51;;;;;;;0.83;0.67;;;;;;;;;;4937239;28;20207;-68
2022/03/02 05:48:20;;;;;;;3.20;2.97;;;;;;;;;;4936947;29;20207;-68
2022/03/02 05:50:47;;;;;;;1.00;0.97;;;;;;;;;;4937992;28;20588;-68
2022/03/02 05:53:15;;;;;;;0.27;0.27;;;;;;;;;;4932687;29;20227;-67
2022/03/02 05:55:44;;;;;;;6.47;3.93;;;;;;;;;;4934037;28;20622;-67
2022/03/02 05:58:11;;;;;;;1.27;0.10;;;;;;;;;;4932904;28;20199;-67
2022/03/02 06:00:41;;;;;;;2.83;1.70;;;;;;;;;;4935737;28;20204;-68
2022/03/02 06:03:08;;;;;;;1.20;0.97;;;;;;;;;;4934283;29;20572;-68
2022/03/02 06:05:37;;;;;;;0.97;0.97;;;;;;;;;;4935505;28;20211;-68
2022/03/02 06:08:07;;;;;;;2.67;1.77;;;;;;;;;;4936260;29;20862;-68
2022/03/02 06:10:34;;;;;;;0.10;0.10;;;;;;;;;;4935248;29;20204;-68
2022/03/02 06:13:02;;;;;;;1.07;0.97;;;;;;;;;;4938036;28;20317;-68
2022/03/02 06:15:30;;;;;;;1.40;1.30;;;;;;;;;;4941396;28;20214;-68
2022/03/02 06:18:01;;;;;;;2.13;1.13;;;;;;;;;;4942448;28;20206;-68
2022/03/02 06:20:29;;;;;;;2.47;1.70;;;;;;;;;;4940728;28;20196;-69
2022/03/02 06:22:58;;;;;;;1.80;1.70;;;;;;;;;;4932877;28;20202;-68
2022/03/02 06:25:25;;;;;;;0.07;0.07;;;;;;;;;;4934149;29;20208;-68
2022/03/02 06:27:53;;;;;;;0.23;0.23;;;;;;;;;;4943641;28;20203;-68
2022/03/02 06:30:21;;;;;;;1.13;1.03;;;;;;;;;;4938097;28;20237;-68
2022/03/02 06:32:49;;;;;;;0.97;0.80;;;;;;;;;;4938766;29;20231;-67
2022/03/02 06:35:17;;;;;;;2.97;1.60;;;;;;;;;;4938014;28;20671;-68
2022/03/02 06:37:44;;;;;;;0.40;0.40;;;;;;;;;;4938202;29;20206;-68
2022/03/02 06:40:14;;;;;;;0.27;0.27;;;;;;;;;;4938628;28;20664;-69
2022/03/02 06:42:47;;;;;;;0.10;0.10;;;;;;;;;;4932832;28;20203;-67
2022/03/02 06:45:19;;;;;;;1.97;0.67;;;;;;;;;;4935717;28;20561;-68
2022/03/02 06:47:48;;;;;;;5.33;4.97;;;;;;;;;;4933891;28;20680;-67
2022/03/02 06:50:17;;;;;;;1.30;0.20;;;;;;;;;;4935575;29;20195;-67
2022/03/02 06:52:45;;;;;;;1.83;1.53;;;;;;;;;;4937221;29;20238;-68
2022/03/02 06:55:15;;;;;;;2.83;1.40;;;;;;;;;;4936006;28;20806;-68
2022/03/02 06:57:45;;;;;;;0.00;0.00;;;;;;;;;;4933687;28;20208;-67
2022/03/02 07:00:16;;;;;;;1.70;1.60;;;;;;;;;;4935043;28;20206;-68
2022/03/02 07:02:46;;;;;;;0.00;0.00;;;;;;;;;;4933591;29;20345;-68
2022/03/02 07:05:13;;;;;;;0.53;0.53;;;;;;;;;;4939765;29;20218;-66
2022/03/02 07:07:41;;;;;;;0.87;0.50;;;;;;;;;;4940426;29;20203;-67
2022/03/02 07:10:10;;;;;;;2.13;1.17;;;;;;;;;;4934367;29;20199;-68
2022/03/02 07:12:39;;;;;;;0.53;0.53;;;;;;;;;;4936386;28;20235;-66
2022/03/02 07:15:08;;;;;;;0.00;0.00;;;;;;;;;;4940599;28;20218;-70
2022/03/02 07:17:35;;;;;;;0.47;0.47;;;;;;;;;;4937187;28;20202;-67
2022/03/02 07:20:03;;;;;;;1.00;1.00;;;;;;;;;;4940180;28;20260;-68
2022/03/02 07:22:32;;;;;;;2.73;1.93;;;;;;;;;;4936687;28;20211;-68
2022/03/02 07:25:03;;;;;;;3.97;3.57;;;;;;;;;;4935936;28;20199;-68
2022/03/02 07:27:31;;;;;;;1.90;1.60;;;;;;;;;;4934248;28;20210;-68
2022/03/02 07:30:00;;;;;;;0.40;0.40;;;;;;;;;;4939284;28;20195;-69
2022/03/02 07:32:32;;;;;;;1.17;1.13;;;;;;;;;;4938737;29;20228;-68
2022/03/02 07:35:00;;;;;;;0.20;0.20;;;;;;;;;;4938524;29;20212;-68
2022/03/02 07:37:28;;;;;;;0.60;0.60;;;;;;;;;;4937890;28;20254;-68
2022/03/02 07:39:56;;;;;;;4.63;3.93;;;;;;;;;;4939458;28;20208;-67
2022/03/02 07:42:24;;;;;;;4.97;3.50;;;;;;;;;;4948942;29;20206;-69
2022/03/02 07:44:53;;;;;;;2.87;1.40;;;;;;;;;;4946656;28;20207;-68
2022/03/02 07:47:21;;;;;;;1.07;1.07;;;;;;;;;;4945310;28;20565;-68
2022/03/02 07:49:49;;;;;;;3.40;2.07;;;;;;;;;;4940945;28;20230;-68
2022/03/02 07:52:18;;;;;;;1.20;0.60;;;;;;;;;;4943330;28;20215;-68
2022/03/02 07:54:46;;;;;;;1.70;1.57;;;;;;;;;;4944953;28;20235;-69
2022/03/02 07:57:14;;;;;;;0.83;0.77;;;;;;;;;;4943313;29;20214;-68
2022/03/02 07:59:42;;;;;;;1.17;0.70;;;;;;;;;;4945871;29;20676;-68
2022/03/02 08:02:11;;;;;;;1.17;0.80;;;;;;;;;;4944852;28;20202;-67
2022/03/02 08:04:41;;;;;;;0.40;0.40;;;;;;;;;;4944550;29;20657;-67
2022/03/02 08:07:10;;;;;;;4.90;3.30;;;;;;;;;;4944582;28;20207;-67
2022/03/02 08:09:37;;;;;;;4.60;2.13;;;;;;;;;;4945035;28;20254;-67
2022/03/02 08:12:07;;;;;;;4.40;2.93;;;;;;;;;;4944266;28;20568;-68
2022/03/02 08:14:34;;;;;;;0.20;0.20;;;;;;;;;;4943337;28;20199;-67
2022/03/02 08:17:04;;;;;;;2.37;1.17;;;;;;;;;;4945014;28;20223;-67
2022/03/02 08:19:32;;;;;;;0.50;0.50;;;;;;;;;;4944765;28;20206;-68
2022/03/02 08:22:05;;;;;;;3.57;2.83;;;;;;;;;;4942884;29;20202;-68
2022/03/02 08:24:34;;;;;;;2.53;1.93;;;;;;;;;;4945319;29;20675;-72
2022/03/02 08:27:02;;;;;;;9.03;5.67;;;;;;;;;;4943156;28;20200;-68
2022/03/02 08:29:31;;;;;;;1.33;1.23;;;;;;;;;;4940831;28;20207;-69
2022/03/02 08:31:59;;;;;;;2.10;1.37;;;;;;;;;;4953276;29;20207;-69
2022/03/02 08:34:27;;;;;;;5.27;2.87;;;;;;;;;;4953069;29;20266;-73
2022/03/02 08:36:56;;;;;;;0.90;0.87;;;;;;;;;;4944194;28;20229;-72
2022/03/02 08:39:25;;;;;;;0.40;0.40;;;;;;;;;;4946547;29;20218;-72
2022/03/02 08:41:52;;;;;;;0.90;0.87;;;;;;;;;;4941327;28;20203;-70
2022/03/02 08:44:20;;;;;;;2.83;1.20;;;;;;;;;;4945081;29;20834;-70
2022/03/02 08:46:48;;;;;;;6.20;1.67;;;;;;;;;;4941989;28;20226;-68
2022/03/02 08:49:15;;;;;;;8.83;3.37;;;;;;;;;;4940455;28;20199;-71
2022/03/02 08:51:43;;;;;;;1.60;1.40;;;;;;;;;;4945291;28;20207;-71
2022/03/02 08:54:13;;;;;;;0.30;0.30;;;;;;;;;;4950200;28;20245;-73
2022/03/02 08:56:42;;;;;;;1.87;1.77;;;;;;;;;;4953638;29;20199;-79
2022/03/02 08:59:10;;;;;;;2.00;1.90;;;;;;;;;;4949240;28;20199;-77
2022/03/02 09:01:40;;;;;;;1.53;1.17;;;;;;;;;;4947188;29;20199;-77
2022/03/02 09:04:08;;;;;;;4.87;2.97;;;;;;;;;;4943712;28;20241;-75
2022/03/02 09:06:36;;;;;;;2.93;2.33;;;;;;;;;;4941589;29;20258;-73
2022/03/02 09:09:05;;;;;;;1.60;0.87;;;;;;;;;;4941836;29;20261;-75
2022/03/02 09:11:32;;;;;;;7.23;4.57;;;;;;;;;;4943729;29;20642;-73
2022/03/02 09:14:01;;;;;;;3.07;2.87;;;;;;;;;;4948351;29;20575;-73
2022/03/02 09:16:31;;;;;;;0.60;0.60;;;;;;;;;;4954932;28;20207;-72
2022/03/02 09:18:58;;;;;;;4.17;3.50;;;;;;;;;;4951172;29;20203;-77
2022/03/02 09:21:27;;;;;;;3.50;3.03;;;;;;;;;;4951285;29;20214;-75
2022/03/02 09:23:56;;;;;;;1.50;1.40;;;;;;;;;;4954024;29;20234;-78
2022/03/02 09:26:23;;;;;;;1.13;0.67;;;;;;;;;;4958878;28;20203;-77
2022/03/02 09:28:52;;;;;;;2.37;2.13;;;;;;;;;;4960797;29;20249;-74
2022/03/02 09:31:22;;;;;;;3.10;0.83;;;;;;;;;;4951692;29;20720;-74
2022/03/02 09:33:51;;;;;;;3.70;2.93;;;;;;;;;;4952069;29;20473;-72
2022/03/02 09:36:21;;;;;;;1.50;1.03;;;;;;;;;;4943174;29;20199;-72
2022/03/02 09:38:50;;;;;;;0.00;0.00;;;;;;;;;;4944282;29;20231;-72
2022/03/02 09:41:20;;;;;;;3.57;3.23;;;;;;;;;;4950054;29;20191;-73
2022/03/02 09:43:50;;;;;;;2.03;1.70;;;;;;;;;;4944632;29;20219;-71
2022/03/02 09:46:19;;;;;;;2.40;0.97;;;;;;;;;;4939805;29;20211;-74
2022/03/02 09:48:50;;;;;;;1.13;1.07;;;;;;;;;;4951620;28;20203;-72
2022/03/02 09:51:22;;;;;;;1.53;1.03;;;;;;;;;;4944348;28;20294;-71
2022/03/02 09:53:51;;;;;;;1.80;1.23;;;;;;;;;;4944342;28;20620;-72
2022/03/02 09:56:20;;;;;;;1.40;1.17;;;;;;;;;;4956735;29;20199;-71
2022/03/02 09:58:50;;;;;;;2.37;1.43;;;;;;;;;;4949229;28;20210;-73
2022/03/02 10:01:22;;;;;;;2.37;1.80;;;;;;;;;;4953243;29;20361;-73
2022/03/02 10:03:52;;;;;;;3.50;2.30;;;;;;;;;;4956116;29;20226;-73
2022/03/02 10:06:20;;;;;;;1.90;1.10;;;;;;;;;;4962865;28;20219;-73
2022/03/02 10:08:48;;;;;;;1.13;1.13;;;;;;;;;;4964647;28;20676;-73
2022/03/02 10:11:17;;;;;;;2.47;1.60;;;;;;;;;;4966100;29;20706;-74
2022/03/02 10:13:44;;;;;;;3.03;2.00;;;;;;;;;;4973612;28;20250;-77
2022/03/02 10:16:18;;;;;;;0.70;0.20;;;;;;;;;;4966903;28;20195;-73
2022/03/02 10:18:51;;;;;;;6.17;3.50;;;;;;;;;;4957799;29;20198;-73
2022/03/02 10:21:21;;;;;;;2.60;1.97;;;;;;;;;;4956581;29;20195;-72
2022/03/02 10:23:49;;;;;;;5.83;2.90;;;;;;;;;;4961184;28;20231;-73
2022/03/02 10:26:19;;;;;;;1.60;1.50;;;;;;;;;;4958041;29;20241;-72
2022/03/02 10:28:59;;;;;;;5.57;2.47;;;;;;;;;;4955376;29;20199;-74
2022/03/02 10:31:28;;;;;;;1.83;1.53;;;;;;;;;;4966429;28;20206;-77
2022/03/02 10:33:57;;;;;;;8.87;3.90;;;;;;;;;;4953842;28;20273;-78
2022/03/02 10:36:29;;;;;;;2.77;2.57;;;;;;;;;;4946001;29;20282;-77
2022/03/02 10:39:03;;;;;;;3.27;1.23;;;;;;;;;;4942406;28;20284;-76
2022/03/02 10:41:34;;;;;;;2.53;1.10;;;;;;;;;;4940688;28;20584;-74
2022/03/02 10:44:04;;;;;;;4.10;3.00;;;;;;;;;;4947211;28;20203;-73
2022/03/02 10:46:31;;;;;;;7.63;3.70;;;;;;;;;;4949430;29;20215;-73
2022/03/02 10:49:03;;;;;;;8.13;5.43;;;;;;;;;;4952051;28;20660;-72
2022/03/02 10:51:33;;;;;;;2.40;1.53;;;;;;;;;;4946383;29;20207;-70
2022/03/02 10:54:02;;;;;;;1.60;1.50;;;;;;;;;;4943055;28;20247;-74
2022/03/02 10:56:30;;;;;;;5.23;4.73;;;;;;;;;;4944002;29;20198;-71
2022/03/02 10:58:59;;;;;;;2.87;2.43;;;;;;;;;;4947038;29;20258;-71
2022/03/02 11:01:26;;;;;;;0.20;0.20;;;;;;;;;;4942026;28;20206;-72
2022/03/02 11:03:54;;;;;;;3.73;2.33;;;;;;;;;;4944849;28;20203;-72
2022/03/02 11:06:22;;;;;;;2.17;2.07;;;;;;;;;;4951529;29;20222;-72
2022/03/02 11:08:51;;;;;;;1.67;1.07;;;;;;;;;;4950989;29;20211;-72
2022/03/02 11:11:19;;;;;;;1.23;1.13;;;;;;;;;;4950830;28;20210;-72
2022/03/02 11:13:47;;;;;;;5.77;3.93;;;;;;;;;;4951436;29;20786;-77
2022/03/02 11:16:19;;;;;;;0.53;0.53;;;;;;;;;;4950764;29;20203;-71
2022/03/02 11:18:50;;;;;;;0.50;0.37;;;;;;;;;;4951165;29;20605;-72
2022/03/02 11:21:20;;;;;;;4.57;1.53;;;;;;;;;;4943457;28;20310;-71
2022/03/02 11:23:49;;;;;;;3.00;1.03;;;;;;;;;;4940235;29;20214;-71
2022/03/02 11:26:22;;;;;;;3.13;1.60;;;;;;;;;;4941854;29;20203;-71
2022/03/02 11:28:50;;;;;;;2.67;1.90;;;;;;;;;;4939524;28;20207;-71
2022/03/02 11:31:21;;;;;;;5.53;2.87;;;;;;;;;;4950377;28;20200;-71
2022/03/02 11:33:48;;;;;;;4.47;3.20;;;;;;;;;;4941554;29;20303;-75
2022/03/02 11:36:17;;;;;;;0.90;0.90;;;;;;;;;;4942090;29;20213;-77
2022/03/02 11:38:46;;;;;;;2.50;2.07;;;;;;;;;;4942135;29;20210;-76
2022/03/02 11:41:15;;;;;;;2.33;1.70;;;;;;;;;;4938212;29;20210;-74
2022/03/02 11:43:44;;;;;;;1.43;1.33;;;;;;;;;;4939629;29;20306;-77
2022/03/02 11:46:12;;;;;;;1.47;1.37;;;;;;;;;;4942465;28;20203;-76
2022/03/02 11:48:41;;;;;;;2.60;2.40;;;;;;;;;;4945996;28;20202;-76
2022/03/02 11:51:10;;;;;;;4.03;1.30;;;;;;;;;;4947794;28;20283;-73
2022/03/02 11:53:39;;;;;;;3.50;2.23;;;;;;;;;;4942321;28;20329;-72
2022/03/02 11:56:08;;;;;;;2.47;1.77;;;;;;;;;;4954808;28;20300;-78
2022/03/02 11:59:00;;;;;;;1.53;1.43;;;;;;;;;;4947085;29;20199;-77
2022/03/02 12:01:29;;;;;;;2.73;1.57;;;;;;;;;;4947827;28;20286;-76
2022/03/02 12:03:57;;;;;;;2.20;1.43;;;;;;;;;;4950239;29;20207;-74
2022/03/02 12:06:24;;;;;;;3.07;1.77;;;;;;;;;;4954679;28;20576;-72
2022/03/02 12:08:53;;;;;;;3.03;1.87;;;;;;;;;;4953836;29;20648;-76
2022/03/02 12:11:24;;;;;;;2.03;1.43;;;;;;;;;;4952880;28;20218;-78
2022/03/02 12:14:04;;;;;;;4.93;4.63;;;;;;;;;;4947897;29;20239;-72
2022/03/02 12:16:38;;;;;;;2.53;2.33;;;;;;;;;;4942944;28;20199;-73
2022/03/02 12:19:06;;;;;;;0.10;0.10;;;;;;;;;;4944919;28;20293;-72
2022/03/02 12:21:33;;;;;;;2.17;1.97;;;;;;;;;;4950437;29;20191;-72
2022/03/02 12:24:01;;;;;;;2.67;2.47;;;;;;;;;;4953605;29;20211;-73
2022/03/02 12:26:30;;;;;;;0.37;0.37;;;;;;;;;;4952221;28;20207;-72
2022/03/02 12:28:57;;;;;;;0.30;0.30;;;;;;;;;;4952513;28;20290;-70
2022/03/02 12:31:33;;;;;;;1.50;1.43;;;;;;;;;;4953303;28;20577;-71
2022/03/02 12:34:01;;;;;;;0.57;0.50;;;;;;;;;;4953124;28;20323;-73
2022/03/02 12:36:28;;;;;;;4.00;3.70;;;;;;;;;;4944452;28;20737;-72
2022/03/02 12:38:56;;;;;;;3.37;2.27;;;;;;;;;;4942363;29;20195;-72
2022/03/02 12:41:23;;;;;;;2.70;1.60;;;;;;;;;;4945554;28;20203;-70
2022/03/02 12:43:51;;;;;;;5.93;3.30;;;;;;;;;;4951228;28;20258;-72
2022/03/02 12:46:20;;;;;;;2.93;1.63;;;;;;;;;;4953123;29;20205;-77
2022/03/02 12:48:51;;;;;;;1.50;1.40;;;;;;;;;;4942171;28;20211;-73
2022/03/02 12:51:18;;;;;;;3.30;3.10;;;;;;;;;;4947233;29;20205;-74
2022/03/02 12:53:47;;;;;;;0.60;0.53;;;;;;;;;;4941727;29;20239;-80
2022/03/02 12:56:15;;;;;;;2.03;1.83;;;;;;;;;;4946179;29;20199;-74
2022/03/02 12:58:44;;;;;;;1.73;0.53;;;;;;;;;;4945074;29;20207;-73
2022/03/02 13:01:12;;;;;;;2.30;1.93;;;;;;;;;;4947634;28;20215;-72
2022/03/02 13:03:44;;;;;;;4.00;3.67;;;;;;;;;;4944813;29;20281;-73
2022/03/02 13:06:15;;;;;;;1.50;1.40;;;;;;;;;;4953254;28;20202;-74
2022/03/02 13:08:45;;;;;;;0.70;0.70;;;;;;;;;;4951296;28;20211;-73
2022/03/02 13:11:23;;;;;;;3.00;1.17;;;;;;;;;;4953442;29;20203;-75
2022/03/02 13:13:50;;;;;;;1.10;1.10;;;;;;;;;;4948602;29;20230;-75
2022/03/02 13:16:19;;;;;;;4.27;3.33;;;;;;;;;;4943080;29;20207;-77
2022/03/02 13:18:46;;;;;;;0.97;0.90;;;;;;;;;;4939986;28;20203;-72
2022/03/02 13:21:23;;;;;;;1.30;0.87;;;;;;;;;;4943682;28;20247;-78
2022/03/02 13:24:04;;;;;;;0.77;0.77;;;;;;;;;;4942173;29;20195;-75
2022/03/02 13:26:33;;;;;;;2.63;1.97;;;;;;;;;;4941737;28;20203;-73
2022/03/02 13:29:02;;;;;;;2.10;1.80;;;;;;;;;;4945497;29;20264;-75
2022/03/02 13:31:30;;;;;;;0.53;0.53;;;;;;;;;;4945781;29;20665;-77
2022/03/02 13:34:07;;;;;;;0.73;0.73;;;;;;;;;;4940767;29;20234;-75
2022/03/02 13:36:37;;;;;;;2.10;2.00;;;;;;;;;;4940902;29;20256;-76
2022/03/02 13:39:09;;;;;;;0.00;0.00;;;;;;;;;;4944700;29;20210;-74
2022/03/02 13:41:41;;;;;;;1.00;0.23;;;;;;;;;;4940642;29;20199;-73
2022/03/02 13:44:23;;;;;;;0.37;0.37;;;;;;;;;;4941840;29;20240;-73
2022/03/02 13:47:10;;;;;;;0.70;0.60;;;;;;;;;;4941537;29;20202;-78
2022/03/02 13:49:53;;;;;;;3.60;2.30;;;;;;;;;;4943770;28;20207;-80
2022/03/02 13:52:23;;;;;;;0.67;0.50;;;;;;;;;;4945850;28;20207;-77
2022/03/02 13:54:50;;;;;;;1.23;0.90;;;;;;;;;;4940411;28;20270;-74
2022/03/02 13:57:19;;;;;;;1.00;0.93;;;;;;;;;;4940296;29;20214;-75
2022/03/02 13:59:46;;;;;;;2.40;1.97;;;;;;;;;;4943900;28;20205;-75
2022/03/02 14:02:14;;;;;;;0.10;0.10;;;;;;;;;;4944506;29;20305;-74
2022/03/02 14:04:44;;;;;;;2.20;2.03;;;;;;;;;;4947924;29;20218;-75
2022/03/02 14:07:11;;;;;;;2.80;2.27;;;;;;;;;;4951645;29;20569;-73
2022/03/02 14:09:40;;;;;;;1.90;1.80;;;;;;;;;;4952403;28;20695;-78
2022/03/02 14:12:09;;;;;;;9.20;1.50;;;;;;;;;;4948324;28;20199;-75
2022/03/02 14:14:36;;;;;;;0.50;0.50;;;;;;;;;;4943574;29;20231;-76
2022/03/02 14:17:05;;;;;;;0.40;0.23;;;;;;;;;;4948971;28;20779;-75
2022/03/02 14:19:38;;;;;;;0.87;0.87;;;;;;;;;;4950711;28;20195;-75
2022/03/02 14:22:09;;;;;;;1.67;1.57;;;;;;;;;;4950349;29;20262;-75
2022/03/02 14:24:37;;;;;;;1.33;0.50;;;;;;;;;;4952373;29;20207;-75
2022/03/02 14:27:09;;;;;;;3.97;1.23;;;;;;;;;;4950283;29;20748;-74
2022/03/02 14:29:38;;;;;;;2.53;1.23;;;;;;;;;;4951006;29;20298;-74
2022/03/02 14:32:07;;;;;;;0.60;0.60;;;;;;;;;;4947895;28;20587;-75
2022/03/02 14:34:50;;;;;;;2.67;1.30;;;;;;;;;;4952019;29;20321;-73
2022/03/02 14:37:18;;;;;;;1.07;1.03;;;;;;;;;;4951929;29;20211;-74
2022/03/02 14:39:59;;;;;;;2.00;1.80;;;;;;;;;;4952613;29;20213;-74
2022/03/02 14:42:28;;;;;;;1.60;0.77;;;;;;;;;;4951344;29;20246;-74
2022/03/02 14:45:09;;;;;;;3.30;2.90;;;;;;;;;;4950848;29;20206;-74
2022/03/02 14:47:36;;;;;;;1.20;1.10;;;;;;;;;;4951574;29;20207;-74
2022/03/02 14:50:05;;;;;;;0.53;0.53;;;;;;;;;;4948148;28;20207;-74
2022/03/02 14:52:33;;;;;;;4.83;2.73;;;;;;;;;;4940128;28;20198;-75